sensor_id;sensor_type;location;lat;lon;timestamp;P1;durP1;ratioP1;P2;durP2;ratioP2
43435;SDS011;36399;51.444;-2.018;2023-04-24T00:00:21;24.57;;;11.77;;
43435;SDS011;36399;51.444;-2.018;2023-04-24T00:02:47;27.07;;;13.13;;
43435;SDS011;36399;51.444;-2.018;2023-04-24T00:05:14;24.23;;;12.10;;
43435;SDS011;36399;51.444;-2.018;2023-04-24T00:07:41;24.77;;;11.90;;
43435;SDS011;36399;51.444;-2.018;2023-04-24T00:10:07;27.43;;;11.53;;
43435;SDS011;36399;51.444;-2.018;2023-04-24T00:12:34;27.77;;;11.73;;
43435;SDS011;36399;51.444;-2.018;2023-04-24T00:15:00;24.27;;;12.13;;
43435;SDS011;36399;51.444;-2.018;2023-04-24T00:17:26;25.07;;;10.60;;
43435;SDS011;36399;51.444;-2.018;2023-04-24T00:19:52;24.13;;;11.13;;
43435;SDS011;36399;51.444;-2.018;2023-04-24T00:22:24;24.63;;;12.13;;
43435;SDS011;36399;51.444;-2.018;2023-04-24T00:24:51;26.67;;;10.90;;
43435;SDS011;36399;51.444;-2.018;2023-04-24T00:27:16;23.40;;;11.53;;
43435;SDS011;36399;51.444;-2.018;2023-04-24T00:29:42;21.07;;;11.47;;
43435;SDS011;36399;51.444;-2.018;2023-04-24T00:32:08;20.83;;;11.10;;
43435;SDS011;36399;51.444;-2.018;2023-04-24T00:34:34;27.90;;;12.77;;
43435;SDS011;36399;51.444;-2.018;2023-04-24T00:37:00;22.37;;;11.83;;
43435;SDS011;36399;51.444;-2.018;2023-04-24T00:39:26;22.17;;;10.40;;
43435;SDS011;36399;51.444;-2.018;2023-04-24T00:41:52;28.00;;;11.00;;
43435;SDS011;36399;51.444;-2.018;2023-04-24T00:44:19;24.30;;;11.60;;
43435;SDS011;36399;51.444;-2.018;2023-04-24T00:46:45;25.83;;;12.87;;
43435;SDS011;36399;51.444;-2.018;2023-04-24T00:49:13;24.17;;;11.97;;
43435;SDS011;36399;51.444;-2.018;2023-04-24T00:51:39;29.13;;;12.90;;
43435;SDS011;36399;51.444;-2.018;2023-04-24T00:54:06;26.57;;;12.20;;
43435;SDS011;36399;51.444;-2.018;2023-04-24T00:56:32;31.57;;;12.43;;
43435;SDS011;36399;51.444;-2.018;2023-04-24T00:58:58;27.30;;;13.70;;
43435;SDS011;36399;51.444;-2.018;2023-04-24T01:01:25;26.97;;;13.03;;
43435;SDS011;36399;51.444;-2.018;2023-04-24T01:03:51;29.13;;;13.20;;
43435;SDS011;36399;51.444;-2.018;2023-04-24T01:06:18;28.53;;;13.00;;
43435;SDS011;36399;51.444;-2.018;2023-04-24T01:08:45;29.10;;;13.37;;
43435;SDS011;36399;51.444;-2.018;2023-04-24T01:11:13;27.30;;;12.50;;
43435;SDS011;36399;51.444;-2.018;2023-04-24T01:13:39;30.60;;;13.07;;
43435;SDS011;36399;51.444;-2.018;2023-04-24T01:16:06;34.77;;;14.07;;
43435;SDS011;36399;51.444;-2.018;2023-04-24T01:18:31;28.17;;;13.97;;
43435;SDS011;36399;51.444;-2.018;2023-04-24T01:20:58;33.10;;;14.70;;
43435;SDS011;36399;51.444;-2.018;2023-04-24T01:23:25;29.10;;;16.00;;
43435;SDS011;36399;51.444;-2.018;2023-04-24T01:25:52;31.23;;;15.00;;
43435;SDS011;36399;51.444;-2.018;2023-04-24T01:28:18;29.20;;;13.90;;
43435;SDS011;36399;51.444;-2.018;2023-04-24T01:30:44;27.03;;;13.07;;
43435;SDS011;36399;51.444;-2.018;2023-04-24T01:33:10;27.10;;;12.77;;
43435;SDS011;36399;51.444;-2.018;2023-04-24T01:35:39;26.53;;;14.37;;
43435;SDS011;36399;51.444;-2.018;2023-04-24T01:38:05;29.63;;;15.80;;
43435;SDS011;36399;51.444;-2.018;2023-04-24T01:40:32;34.90;;;15.20;;
43435;SDS011;36399;51.444;-2.018;2023-04-24T01:42:58;27.97;;;13.83;;
43435;SDS011;36399;51.444;-2.018;2023-04-24T01:45:24;31.60;;;13.20;;
43435;SDS011;36399;51.444;-2.018;2023-04-24T01:47:50;27.17;;;13.07;;
43435;SDS011;36399;51.444;-2.018;2023-04-24T01:50:17;32.43;;;14.37;;
43435;SDS011;36399;51.444;-2.018;2023-04-24T01:52:43;35.30;;;14.37;;
43435;SDS011;36399;51.444;-2.018;2023-04-24T01:55:09;38.17;;;16.53;;
43435;SDS011;36399;51.444;-2.018;2023-04-24T01:57:36;36.97;;;15.50;;
43435;SDS011;36399;51.444;-2.018;2023-04-24T02:00:02;32.90;;;15.23;;
43435;SDS011;36399;51.444;-2.018;2023-04-24T02:02:32;32.60;;;15.37;;
43435;SDS011;36399;51.444;-2.018;2023-04-24T02:04:59;38.40;;;15.23;;
43435;SDS011;36399;51.444;-2.018;2023-04-24T02:07:25;28.93;;;13.73;;
43435;SDS011;36399;51.444;-2.018;2023-04-24T02:09:51;31.80;;;14.50;;
43435;SDS011;36399;51.444;-2.018;2023-04-24T02:12:17;31.77;;;13.80;;
43435;SDS011;36399;51.444;-2.018;2023-04-24T02:14:43;31.40;;;15.03;;
43435;SDS011;36399;51.444;-2.018;2023-04-24T02:17:09;27.37;;;12.57;;
43435;SDS011;36399;51.444;-2.018;2023-04-24T02:19:38;28.03;;;13.70;;
43435;SDS011;36399;51.444;-2.018;2023-04-24T02:22:04;32.60;;;13.63;;
43435;SDS011;36399;51.444;-2.018;2023-04-24T02:24:30;26.10;;;12.07;;
43435;SDS011;36399;51.444;-2.018;2023-04-24T02:26:56;31.60;;;14.33;;
43435;SDS011;36399;51.444;-2.018;2023-04-24T02:29:23;31.33;;;14.27;;
43435;SDS011;36399;51.444;-2.018;2023-04-24T02:31:49;30.43;;;12.50;;
43435;SDS011;36399;51.444;-2.018;2023-04-24T02:34:15;28.90;;;13.10;;
43435;SDS011;36399;51.444;-2.018;2023-04-24T02:36:41;30.27;;;12.83;;
43435;SDS011;36399;51.444;-2.018;2023-04-24T02:39:07;29.73;;;14.63;;
43435;SDS011;36399;51.444;-2.018;2023-04-24T02:41:33;28.57;;;12.80;;
43435;SDS011;36399;51.444;-2.018;2023-04-24T02:43:59;31.27;;;13.53;;
43435;SDS011;36399;51.444;-2.018;2023-04-24T02:46:25;31.30;;;12.17;;
43435;SDS011;36399;51.444;-2.018;2023-04-24T02:48:51;28.50;;;13.40;;
43435;SDS011;36399;51.444;-2.018;2023-04-24T02:51:17;29.50;;;12.13;;
43435;SDS011;36399;51.444;-2.018;2023-04-24T02:53:43;25.73;;;11.90;;
43435;SDS011;36399;51.444;-2.018;2023-04-24T02:56:09;26.33;;;14.03;;
43435;SDS011;36399;51.444;-2.018;2023-04-24T02:58:37;32.60;;;12.87;;
43435;SDS011;36399;51.444;-2.018;2023-04-24T03:01:03;32.27;;;13.90;;
43435;SDS011;36399;51.444;-2.018;2023-04-24T03:03:30;29.07;;;12.47;;
43435;SDS011;36399;51.444;-2.018;2023-04-24T03:05:56;31.33;;;14.33;;
43435;SDS011;36399;51.444;-2.018;2023-04-24T03:08:22;27.90;;;12.97;;
43435;SDS011;36399;51.444;-2.018;2023-04-24T03:10:48;29.70;;;13.37;;
43435;SDS011;36399;51.444;-2.018;2023-04-24T03:13:15;29.33;;;13.87;;
43435;SDS011;36399;51.444;-2.018;2023-04-24T03:15:41;29.30;;;14.07;;
43435;SDS011;36399;51.444;-2.018;2023-04-24T03:18:07;30.07;;;14.03;;
43435;SDS011;36399;51.444;-2.018;2023-04-24T03:20:33;31.47;;;13.43;;
43435;SDS011;36399;51.444;-2.018;2023-04-24T03:22:59;26.33;;;13.10;;
43435;SDS011;36399;51.444;-2.018;2023-04-24T03:25:26;25.00;;;12.67;;
43435;SDS011;36399;51.444;-2.018;2023-04-24T03:27:52;24.73;;;11.60;;
43435;SDS011;36399;51.444;-2.018;2023-04-24T03:30:17;25.40;;;11.87;;
43435;SDS011;36399;51.444;-2.018;2023-04-24T03:32:43;23.50;;;11.03;;
43435;SDS011;36399;51.444;-2.018;2023-04-24T03:35:09;27.77;;;12.07;;
43435;SDS011;36399;51.444;-2.018;2023-04-24T03:37:35;26.80;;;11.90;;
43435;SDS011;36399;51.444;-2.018;2023-04-24T03:40:01;24.70;;;11.53;;
43435;SDS011;36399;51.444;-2.018;2023-04-24T03:42:28;26.23;;;11.80;;
43435;SDS011;36399;51.444;-2.018;2023-04-24T03:44:54;23.57;;;11.47;;
43435;SDS011;36399;51.444;-2.018;2023-04-24T03:47:20;27.53;;;12.93;;
43435;SDS011;36399;51.444;-2.018;2023-04-24T03:49:46;25.30;;;11.50;;
43435;SDS011;36399;51.444;-2.018;2023-04-24T03:52:11;22.60;;;11.70;;
43435;SDS011;36399;51.444;-2.018;2023-04-24T03:54:37;25.37;;;11.13;;
43435;SDS011;36399;51.444;-2.018;2023-04-24T03:57:03;22.97;;;11.83;;
43435;SDS011;36399;51.444;-2.018;2023-04-24T03:59:30;24.07;;;11.97;;
43435;SDS011;36399;51.444;-2.018;2023-04-24T04:01:56;26.37;;;12.10;;
43435;SDS011;36399;51.444;-2.018;2023-04-24T04:04:22;25.60;;;12.53;;
43435;SDS011;36399;51.444;-2.018;2023-04-24T04:06:48;28.80;;;11.80;;
43435;SDS011;36399;51.444;-2.018;2023-04-24T04:09:14;26.83;;;13.00;;
43435;SDS011;36399;51.444;-2.018;2023-04-24T04:11:40;28.67;;;11.93;;
43435;SDS011;36399;51.444;-2.018;2023-04-24T04:14:06;22.07;;;10.67;;
43435;SDS011;36399;51.444;-2.018;2023-04-24T04:16:32;25.17;;;10.83;;
43435;SDS011;36399;51.444;-2.018;2023-04-24T04:18:58;23.87;;;10.37;;
43435;SDS011;36399;51.444;-2.018;2023-04-24T04:21:24;24.37;;;11.17;;
43435;SDS011;36399;51.444;-2.018;2023-04-24T04:23:52;27.10;;;11.63;;
43435;SDS011;36399;51.444;-2.018;2023-04-24T04:26:17;24.67;;;11.03;;
43435;SDS011;36399;51.444;-2.018;2023-04-24T04:28:44;26.60;;;10.47;;
43435;SDS011;36399;51.444;-2.018;2023-04-24T04:31:10;21.53;;;9.93;;
43435;SDS011;36399;51.444;-2.018;2023-04-24T04:33:36;24.97;;;10.17;;
43435;SDS011;36399;51.444;-2.018;2023-04-24T04:36:03;26.23;;;11.20;;
43435;SDS011;36399;51.444;-2.018;2023-04-24T04:38:29;22.20;;;10.63;;
43435;SDS011;36399;51.444;-2.018;2023-04-24T04:40:55;25.53;;;10.90;;
43435;SDS011;36399;51.444;-2.018;2023-04-24T04:43:24;20.70;;;9.40;;
43435;SDS011;36399;51.444;-2.018;2023-04-24T04:45:51;24.70;;;10.43;;
43435;SDS011;36399;51.444;-2.018;2023-04-24T04:48:17;23.53;;;10.83;;
43435;SDS011;36399;51.444;-2.018;2023-04-24T04:50:44;28.27;;;11.13;;
43435;SDS011;36399;51.444;-2.018;2023-04-24T04:53:10;30.90;;;10.70;;
43435;SDS011;36399;51.444;-2.018;2023-04-24T04:55:36;29.73;;;11.57;;
43435;SDS011;36399;51.444;-2.018;2023-04-24T04:58:03;25.03;;;11.33;;
43435;SDS011;36399;51.444;-2.018;2023-04-24T05:00:29;26.77;;;11.47;;
43435;SDS011;36399;51.444;-2.018;2023-04-24T05:03:01;29.90;;;12.27;;
43435;SDS011;36399;51.444;-2.018;2023-04-24T05:05:27;29.00;;;12.17;;
43435;SDS011;36399;51.444;-2.018;2023-04-24T05:07:53;24.63;;;11.57;;
43435;SDS011;36399;51.444;-2.018;2023-04-24T05:10:19;25.87;;;11.23;;
43435;SDS011;36399;51.444;-2.018;2023-04-24T05:12:45;25.17;;;11.83;;
43435;SDS011;36399;51.444;-2.018;2023-04-24T05:15:11;33.83;;;12.80;;
43435;SDS011;36399;51.444;-2.018;2023-04-24T05:17:37;28.43;;;11.70;;
43435;SDS011;36399;51.444;-2.018;2023-04-24T05:20:05;32.13;;;12.17;;
43435;SDS011;36399;51.444;-2.018;2023-04-24T05:22:32;28.87;;;12.33;;
43435;SDS011;36399;51.444;-2.018;2023-04-24T05:24:58;33.13;;;13.77;;
43435;SDS011;36399;51.444;-2.018;2023-04-24T05:27:24;31.60;;;13.17;;
43435;SDS011;36399;51.444;-2.018;2023-04-24T05:29:50;34.77;;;12.17;;
43435;SDS011;36399;51.444;-2.018;2023-04-24T05:32:16;30.63;;;13.00;;
43435;SDS011;36399;51.444;-2.018;2023-04-24T05:34:42;30.73;;;12.70;;
43435;SDS011;36399;51.444;-2.018;2023-04-24T05:37:08;29.93;;;12.73;;
43435;SDS011;36399;51.444;-2.018;2023-04-24T05:39:35;36.90;;;13.70;;
43435;SDS011;36399;51.444;-2.018;2023-04-24T05:42:02;27.93;;;12.90;;
43435;SDS011;36399;51.444;-2.018;2023-04-24T05:44:30;28.67;;;11.80;;
43435;SDS011;36399;51.444;-2.018;2023-04-24T05:46:56;34.40;;;15.77;;
43435;SDS011;36399;51.444;-2.018;2023-04-24T05:49:22;27.23;;;14.10;;
43435;SDS011;36399;51.444;-2.018;2023-04-24T05:51:48;28.97;;;13.03;;
43435;SDS011;36399;51.444;-2.018;2023-04-24T05:54:14;37.60;;;14.80;;
43435;SDS011;36399;51.444;-2.018;2023-04-24T05:56:40;26.87;;;12.63;;
43435;SDS011;36399;51.444;-2.018;2023-04-24T05:59:06;31.10;;;13.93;;
43435;SDS011;36399;51.444;-2.018;2023-04-24T06:01:33;29.13;;;13.67;;
43435;SDS011;36399;51.444;-2.018;2023-04-24T06:03:59;30.40;;;13.57;;
43435;SDS011;36399;51.444;-2.018;2023-04-24T06:06:25;28.27;;;12.17;;
43435;SDS011;36399;51.444;-2.018;2023-04-24T06:08:51;26.70;;;12.37;;
43435;SDS011;36399;51.444;-2.018;2023-04-24T06:11:17;28.13;;;12.93;;
43435;SDS011;36399;51.444;-2.018;2023-04-24T06:13:43;29.67;;;13.10;;
43435;SDS011;36399;51.444;-2.018;2023-04-24T06:16:10;28.30;;;12.80;;
43435;SDS011;36399;51.444;-2.018;2023-04-24T06:18:36;29.43;;;13.87;;
43435;SDS011;36399;51.444;-2.018;2023-04-24T06:21:02;25.43;;;12.70;;
43435;SDS011;36399;51.444;-2.018;2023-04-24T06:23:28;31.83;;;13.40;;
43435;SDS011;36399;51.444;-2.018;2023-04-24T06:25:54;32.50;;;13.20;;
43435;SDS011;36399;51.444;-2.018;2023-04-24T06:28:20;34.53;;;14.33;;
43435;SDS011;36399;51.444;-2.018;2023-04-24T06:30:46;32.10;;;14.97;;
43435;SDS011;36399;51.444;-2.018;2023-04-24T06:33:12;26.73;;;14.27;;
43435;SDS011;36399;51.444;-2.018;2023-04-24T06:35:38;31.00;;;14.53;;
43435;SDS011;36399;51.444;-2.018;2023-04-24T06:38:04;30.37;;;13.47;;
43435;SDS011;36399;51.444;-2.018;2023-04-24T06:40:31;33.57;;;14.63;;
43435;SDS011;36399;51.444;-2.018;2023-04-24T06:42:57;32.97;;;14.83;;
43435;SDS011;36399;51.444;-2.018;2023-04-24T06:45:25;26.47;;;14.00;;
43435;SDS011;36399;51.444;-2.018;2023-04-24T06:47:51;34.57;;;14.83;;
43435;SDS011;36399;51.444;-2.018;2023-04-24T06:50:17;37.03;;;14.93;;
43435;SDS011;36399;51.444;-2.018;2023-04-24T06:52:43;30.20;;;15.37;;
43435;SDS011;36399;51.444;-2.018;2023-04-24T06:55:09;27.47;;;13.47;;
43435;SDS011;36399;51.444;-2.018;2023-04-24T06:57:36;34.30;;;14.97;;
43435;SDS011;36399;51.444;-2.018;2023-04-24T07:00:03;30.30;;;14.43;;
43435;SDS011;36399;51.444;-2.018;2023-04-24T07:02:30;34.33;;;15.00;;
43435;SDS011;36399;51.444;-2.018;2023-04-24T07:04:56;32.80;;;14.87;;
43435;SDS011;36399;51.444;-2.018;2023-04-24T07:07:22;28.97;;;12.87;;
43435;SDS011;36399;51.444;-2.018;2023-04-24T07:09:49;29.40;;;13.50;;
43435;SDS011;36399;51.444;-2.018;2023-04-24T07:12:16;30.23;;;14.50;;
43435;SDS011;36399;51.444;-2.018;2023-04-24T07:14:42;35.87;;;15.47;;
43435;SDS011;36399;51.444;-2.018;2023-04-24T07:17:08;36.27;;;15.33;;
43435;SDS011;36399;51.444;-2.018;2023-04-24T07:19:34;30.67;;;13.37;;
43435;SDS011;36399;51.444;-2.018;2023-04-24T07:22:03;34.17;;;15.33;;
43435;SDS011;36399;51.444;-2.018;2023-04-24T07:24:29;32.43;;;15.13;;
43435;SDS011;36399;51.444;-2.018;2023-04-24T07:26:57;33.37;;;16.33;;
43435;SDS011;36399;51.444;-2.018;2023-04-24T07:29:23;33.53;;;14.70;;
43435;SDS011;36399;51.444;-2.018;2023-04-24T07:31:50;30.30;;;14.50;;
43435;SDS011;36399;51.444;-2.018;2023-04-24T07:34:16;35.00;;;14.67;;
43435;SDS011;36399;51.444;-2.018;2023-04-24T07:36:42;33.40;;;14.97;;
43435;SDS011;36399;51.444;-2.018;2023-04-24T07:39:08;27.07;;;13.73;;
43435;SDS011;36399;51.444;-2.018;2023-04-24T07:41:34;31.90;;;15.43;;
43435;SDS011;36399;51.444;-2.018;2023-04-24T07:44:00;31.47;;;14.43;;
43435;SDS011;36399;51.444;-2.018;2023-04-24T07:46:26;26.00;;;13.43;;
43435;SDS011;36399;51.444;-2.018;2023-04-24T07:48:55;29.63;;;14.90;;
43435;SDS011;36399;51.444;-2.018;2023-04-24T07:51:21;26.60;;;14.10;;
43435;SDS011;36399;51.444;-2.018;2023-04-24T07:53:47;24.60;;;13.13;;
43435;SDS011;36399;51.444;-2.018;2023-04-24T07:56:13;20.53;;;11.50;;
43435;SDS011;36399;51.444;-2.018;2023-04-24T07:58:39;27.53;;;12.57;;
43435;SDS011;36399;51.444;-2.018;2023-04-24T08:01:05;19.83;;;11.33;;
43435;SDS011;36399;51.444;-2.018;2023-04-24T08:03:32;16.77;;;9.67;;
43435;SDS011;36399;51.444;-2.018;2023-04-24T08:05:58;18.53;;;9.97;;
43435;SDS011;36399;51.444;-2.018;2023-04-24T08:08:24;19.43;;;10.67;;
43435;SDS011;36399;51.444;-2.018;2023-04-24T08:10:50;15.07;;;8.63;;
43435;SDS011;36399;51.444;-2.018;2023-04-24T08:13:16;12.83;;;7.30;;
43435;SDS011;36399;51.444;-2.018;2023-04-24T08:15:42;12.73;;;7.37;;
43435;SDS011;36399;51.444;-2.018;2023-04-24T08:18:08;11.60;;;6.33;;
43435;SDS011;36399;51.444;-2.018;2023-04-24T08:20:37;7.73;;;5.03;;
43435;SDS011;36399;51.444;-2.018;2023-04-24T08:23:03;10.07;;;6.37;;
43435;SDS011;36399;51.444;-2.018;2023-04-24T08:25:29;8.13;;;5.23;;
43435;SDS011;36399;51.444;-2.018;2023-04-24T08:27:55;10.23;;;6.03;;
43435;SDS011;36399;51.444;-2.018;2023-04-24T08:30:20;9.53;;;6.03;;
43435;SDS011;36399;51.444;-2.018;2023-04-24T08:32:47;9.17;;;5.40;;
43435;SDS011;36399;51.444;-2.018;2023-04-24T08:35:13;11.10;;;6.07;;
43435;SDS011;36399;51.444;-2.018;2023-04-24T08:37:39;9.10;;;5.77;;
43435;SDS011;36399;51.444;-2.018;2023-04-24T08:40:26;9.70;;;5.60;;
43435;SDS011;36399;51.444;-2.018;2023-04-24T08:42:55;12.87;;;5.83;;
43435;SDS011;36399;51.444;-2.018;2023-04-24T08:45:24;9.30;;;5.33;;
43435;SDS011;36399;51.444;-2.018;2023-04-24T08:47:50;8.57;;;5.47;;
43435;SDS011;36399;51.444;-2.018;2023-04-24T08:50:19;8.37;;;5.13;;
43435;SDS011;36399;51.444;-2.018;2023-04-24T08:52:45;9.17;;;6.27;;
43435;SDS011;36399;51.444;-2.018;2023-04-24T08:55:12;10.80;;;5.43;;
43435;SDS011;36399;51.444;-2.018;2023-04-24T08:57:39;12.20;;;5.37;;
43435;SDS011;36399;51.444;-2.018;2023-04-24T09:00:05;10.10;;;5.67;;
43435;SDS011;36399;51.444;-2.018;2023-04-24T09:02:33;8.27;;;5.13;;
43435;SDS011;36399;51.444;-2.018;2023-04-24T09:05:00;8.43;;;5.20;;
43435;SDS011;36399;51.444;-2.018;2023-04-24T09:07:27;9.70;;;5.00;;
43435;SDS011;36399;51.444;-2.018;2023-04-24T09:09:54;8.33;;;5.67;;
43435;SDS011;36399;51.444;-2.018;2023-04-24T09:12:20;8.00;;;4.63;;
43435;SDS011;36399;51.444;-2.018;2023-04-24T09:14:46;8.33;;;4.70;;
43435;SDS011;36399;51.444;-2.018;2023-04-24T09:17:13;11.13;;;4.80;;
43435;SDS011;36399;51.444;-2.018;2023-04-24T09:19:40;10.00;;;4.97;;
43435;SDS011;36399;51.444;-2.018;2023-04-24T09:22:07;8.77;;;4.70;;
43435;SDS011;36399;51.444;-2.018;2023-04-24T09:24:33;9.57;;;5.03;;
43435;SDS011;36399;51.444;-2.018;2023-04-24T09:27:00;7.90;;;4.27;;
43435;SDS011;36399;51.444;-2.018;2023-04-24T09:29:27;7.73;;;4.93;;
43435;SDS011;36399;51.444;-2.018;2023-04-24T09:31:53;6.67;;;4.90;;
43435;SDS011;36399;51.444;-2.018;2023-04-24T09:34:23;6.37;;;3.80;;
43435;SDS011;36399;51.444;-2.018;2023-04-24T09:36:51;7.87;;;4.30;;
43435;SDS011;36399;51.444;-2.018;2023-04-24T09:39:18;7.00;;;4.67;;
43435;SDS011;36399;51.444;-2.018;2023-04-24T09:44:17;6.73;;;4.23;;
43435;SDS011;36399;51.444;-2.018;2023-04-24T09:46:50;6.63;;;3.97;;
43435;SDS011;36399;51.444;-2.018;2023-04-24T09:49:22;6.83;;;4.20;;
43435;SDS011;36399;51.444;-2.018;2023-04-24T09:51:52;8.90;;;5.03;;
43435;SDS011;36399;51.444;-2.018;2023-04-24T09:54:28;7.13;;;4.73;;
43435;SDS011;36399;51.444;-2.018;2023-04-24T09:56:55;7.67;;;4.93;;
43435;SDS011;36399;51.444;-2.018;2023-04-24T09:59:21;9.47;;;4.83;;
43435;SDS011;36399;51.444;-2.018;2023-04-24T10:01:47;8.23;;;4.90;;
43435;SDS011;36399;51.444;-2.018;2023-04-24T10:06:49;9.80;;;4.37;;
43435;SDS011;36399;51.444;-2.018;2023-04-24T10:09:16;8.63;;;5.37;;
43435;SDS011;36399;51.444;-2.018;2023-04-24T10:11:44;8.33;;;5.03;;
43435;SDS011;36399;51.444;-2.018;2023-04-24T10:14:15;10.13;;;5.70;;
43435;SDS011;36399;51.444;-2.018;2023-04-24T10:16:43;10.00;;;5.43;;
43435;SDS011;36399;51.444;-2.018;2023-04-24T10:19:10;9.17;;;5.80;;
43435;SDS011;36399;51.444;-2.018;2023-04-24T10:21:39;11.43;;;5.43;;
43435;SDS011;36399;51.444;-2.018;2023-04-24T10:24:15;10.60;;;6.32;;
43435;SDS011;36399;51.444;-2.018;2023-04-24T10:26:43;11.60;;;6.23;;
43435;SDS011;36399;51.444;-2.018;2023-04-24T10:29:10;8.73;;;4.77;;
43435;SDS011;36399;51.444;-2.018;2023-04-24T10:31:38;9.43;;;5.77;;
43435;SDS011;36399;51.444;-2.018;2023-04-24T10:34:05;9.77;;;5.93;;
43435;SDS011;36399;51.444;-2.018;2023-04-24T10:36:32;10.83;;;6.77;;
43435;SDS011;36399;51.444;-2.018;2023-04-24T10:39:01;11.77;;;6.10;;
43435;SDS011;36399;51.444;-2.018;2023-04-24T10:41:30;9.53;;;5.87;;
43435;SDS011;36399;51.444;-2.018;2023-04-24T10:44:06;12.03;;;5.53;;
43435;SDS011;36399;51.444;-2.018;2023-04-24T10:46:35;8.07;;;5.13;;
43435;SDS011;36399;51.444;-2.018;2023-04-24T10:49:05;9.00;;;5.23;;
43435;SDS011;36399;51.444;-2.018;2023-04-24T10:54:25;7.17;;;4.67;;
43435;SDS011;36399;51.444;-2.018;2023-04-24T11:02:41;6.68;;;4.43;;
43435;SDS011;36399;51.444;-2.018;2023-04-24T11:05:17;6.70;;;4.68;;
43435;SDS011;36399;51.444;-2.018;2023-04-24T11:10:47;9.27;;;4.87;;
43435;SDS011;36399;51.444;-2.018;2023-04-24T11:13:22;8.73;;;4.80;;
43435;SDS011;36399;51.444;-2.018;2023-04-24T11:19:07;9.00;;;5.43;;
43435;SDS011;36399;51.444;-2.018;2023-04-24T11:26:57;10.50;;;6.40;;
43435;SDS011;36399;51.444;-2.018;2023-04-24T11:29:42;12.60;;;6.83;;
43435;SDS011;36399;51.444;-2.018;2023-04-24T11:34:58;13.00;;;6.87;;
43435;SDS011;36399;51.444;-2.018;2023-04-24T11:37:45;14.87;;;7.70;;
43435;SDS011;36399;51.444;-2.018;2023-04-24T11:40:14;10.63;;;6.57;;
43435;SDS011;36399;51.444;-2.018;2023-04-24T11:42:42;14.20;;;5.17;;
43435;SDS011;36399;51.444;-2.018;2023-04-24T11:45:13;4.13;;;2.47;;
43435;SDS011;36399;51.444;-2.018;2023-04-24T11:47:39;0.00;;;0.00;;
43435;SDS011;36399;51.444;-2.018;2023-04-24T11:50:10;0.63;;;0.30;;
43435;SDS011;36399;51.444;-2.018;2023-04-24T11:52:38;0.73;;;0.73;;
43435;SDS011;36399;51.444;-2.018;2023-04-24T11:57:43;0.40;;;0.40;;
43435;SDS011;36399;51.444;-2.018;2023-04-24T12:00:20;1.53;;;1.43;;
43435;SDS011;36399;51.444;-2.018;2023-04-24T12:02:48;1.23;;;1.13;;
43435;SDS011;36399;51.444;-2.018;2023-04-24T12:05:19;0.90;;;0.90;;
43435;SDS011;36399;51.444;-2.018;2023-04-24T12:07:46;1.30;;;0.83;;
43435;SDS011;36399;51.444;-2.018;2023-04-24T12:10:12;1.70;;;1.60;;
43435;SDS011;36399;51.444;-2.018;2023-04-24T12:12:38;0.40;;;0.40;;
43435;SDS011;36399;51.444;-2.018;2023-04-24T12:15:07;0.70;;;0.63;;
43435;SDS011;36399;51.444;-2.018;2023-04-24T12:17:35;4.03;;;2.23;;
43435;SDS011;36399;51.444;-2.018;2023-04-24T12:20:06;1.80;;;1.70;;
43435;SDS011;36399;51.444;-2.018;2023-04-24T12:22:47;1.83;;;1.73;;
43435;SDS011;36399;51.444;-2.018;2023-04-24T12:25:19;0.77;;;0.77;;
43435;SDS011;36399;51.444;-2.018;2023-04-24T12:27:51;4.90;;;3.37;;
43435;SDS011;36399;51.444;-2.018;2023-04-24T12:30:25;3.50;;;2.47;;
43435;SDS011;36399;51.444;-2.018;2023-04-24T12:32:54;0.82;;;0.82;;
43435;SDS011;36399;51.444;-2.018;2023-04-24T12:35:21;0.83;;;0.83;;
43435;SDS011;36399;51.444;-2.018;2023-04-24T12:37:48;0.77;;;0.77;;
43435;SDS011;36399;51.444;-2.018;2023-04-24T12:40:15;4.30;;;1.43;;
43435;SDS011;36399;51.444;-2.018;2023-04-24T12:42:43;0.90;;;0.90;;
43435;SDS011;36399;51.444;-2.018;2023-04-24T12:45:11;0.30;;;0.30;;
43435;SDS011;36399;51.444;-2.018;2023-04-24T12:47:38;0.40;;;0.40;;
43435;SDS011;36399;51.444;-2.018;2023-04-24T12:50:05;2.23;;;1.93;;
43435;SDS011;36399;51.444;-2.018;2023-04-24T12:52:36;0.83;;;0.83;;
43435;SDS011;36399;51.444;-2.018;2023-04-24T12:55:03;0.40;;;0.40;;
43435;SDS011;36399;51.444;-2.018;2023-04-24T12:57:30;0.67;;;0.57;;
43435;SDS011;36399;51.444;-2.018;2023-04-24T12:59:57;0.57;;;0.57;;
43435;SDS011;36399;51.444;-2.018;2023-04-24T13:02:24;1.17;;;0.97;;
43435;SDS011;36399;51.444;-2.018;2023-04-24T13:04:51;1.03;;;0.87;;
43435;SDS011;36399;51.444;-2.018;2023-04-24T13:07:18;1.33;;;1.23;;
43435;SDS011;36399;51.444;-2.018;2023-04-24T13:09:44;0.60;;;0.57;;
43435;SDS011;36399;51.444;-2.018;2023-04-24T13:12:11;0.63;;;0.63;;
43435;SDS011;36399;51.444;-2.018;2023-04-24T13:14:38;1.60;;;1.50;;
43435;SDS011;36399;51.444;-2.018;2023-04-24T13:17:04;0.20;;;0.20;;
43435;SDS011;36399;51.444;-2.018;2023-04-24T13:19:34;1.07;;;1.07;;
43435;SDS011;36399;51.444;-2.018;2023-04-24T13:22:02;6.53;;;2.23;;
43435;SDS011;36399;51.444;-2.018;2023-04-24T13:24:28;1.63;;;1.57;;
43435;SDS011;36399;51.444;-2.018;2023-04-24T13:26:54;0.97;;;0.97;;
43435;SDS011;36399;51.444;-2.018;2023-04-24T13:29:22;0.67;;;0.67;;
43435;SDS011;36399;51.444;-2.018;2023-04-24T13:31:51;1.60;;;1.50;;
43435;SDS011;36399;51.444;-2.018;2023-04-24T13:34:20;0.90;;;0.90;;
43435;SDS011;36399;51.444;-2.018;2023-04-24T13:36:47;1.37;;;1.27;;
43435;SDS011;36399;51.444;-2.018;2023-04-24T13:39:13;1.07;;;1.07;;
43435;SDS011;36399;51.444;-2.018;2023-04-24T13:41:39;0.90;;;0.90;;
43435;SDS011;36399;51.444;-2.018;2023-04-24T13:44:05;0.93;;;0.93;;
43435;SDS011;36399;51.444;-2.018;2023-04-24T13:46:32;4.63;;;1.00;;
43435;SDS011;36399;51.444;-2.018;2023-04-24T13:48:58;0.43;;;0.43;;
43435;SDS011;36399;51.444;-2.018;2023-04-24T13:51:25;2.47;;;2.27;;
43435;SDS011;36399;51.444;-2.018;2023-04-24T13:53:54;1.10;;;0.97;;
43435;SDS011;36399;51.444;-2.018;2023-04-24T13:56:21;4.60;;;3.17;;
43435;SDS011;36399;51.444;-2.018;2023-04-24T13:58:47;2.07;;;1.87;;
43435;SDS011;36399;51.444;-2.018;2023-04-24T14:01:14;2.30;;;1.93;;
43435;SDS011;36399;51.444;-2.018;2023-04-24T14:03:41;0.93;;;0.93;;
43435;SDS011;36399;51.444;-2.018;2023-04-24T14:06:09;0.33;;;0.33;;
43435;SDS011;36399;51.444;-2.018;2023-04-24T14:08:34;0.20;;;0.20;;
43435;SDS011;36399;51.444;-2.018;2023-04-24T14:11:00;0.57;;;0.40;;
43435;SDS011;36399;51.444;-2.018;2023-04-24T14:13:26;0.20;;;0.20;;
43435;SDS011;36399;51.444;-2.018;2023-04-24T14:15:53;1.70;;;1.60;;
43435;SDS011;36399;51.444;-2.018;2023-04-24T14:18:19;2.53;;;1.53;;
43435;SDS011;36399;51.444;-2.018;2023-04-24T14:20:45;2.23;;;2.13;;
43435;SDS011;36399;51.444;-2.018;2023-04-24T14:23:11;0.30;;;0.30;;
43435;SDS011;36399;51.444;-2.018;2023-04-24T14:25:37;0.63;;;0.63;;
43435;SDS011;36399;51.444;-2.018;2023-04-24T14:28:03;0.67;;;0.67;;
43435;SDS011;36399;51.444;-2.018;2023-04-24T14:30:31;0.20;;;0.20;;
43435;SDS011;36399;51.444;-2.018;2023-04-24T14:32:56;0.37;;;0.37;;
43435;SDS011;36399;51.444;-2.018;2023-04-24T14:35:22;1.23;;;1.13;;
43435;SDS011;36399;51.444;-2.018;2023-04-24T14:37:48;1.03;;;1.00;;
43435;SDS011;36399;51.444;-2.018;2023-04-24T14:40:14;0.10;;;0.10;;
43435;SDS011;36399;51.444;-2.018;2023-04-24T14:42:40;0.33;;;0.33;;
43435;SDS011;36399;51.444;-2.018;2023-04-24T14:45:07;3.73;;;1.20;;
43435;SDS011;36399;51.444;-2.018;2023-04-24T14:47:33;3.40;;;1.33;;